sensor_id;sensor_type;location;lat;lon;timestamp;P1;durP1;ratioP1;P2;durP2;ratioP2
74102;SDS011;62853;46.166;3.640;2022-10-22T00:01:25;0.70;;;0.50;;
74102;SDS011;62853;46.166;3.640;2022-10-22T00:03:52;0.80;;;0.65;;
74102;SDS011;62853;46.166;3.640;2022-10-22T00:06:17;0.93;;;0.70;;
74102;SDS011;62853;46.166;3.640;2022-10-22T00:08:42;1.35;;;0.40;;
74102;SDS011;62853;46.166;3.640;2022-10-22T00:11:09;0.57;;;0.40;;
74102;SDS011;62853;46.166;3.640;2022-10-22T00:13:34;2.22;;;0.40;;
74102;SDS011;62853;46.166;3.640;2022-10-22T00:16:00;0.67;;;0.60;;
74102;SDS011;62853;46.166;3.640;2022-10-22T00:18:25;0.65;;;0.65;;
74102;SDS011;62853;46.166;3.640;2022-10-22T00:20:50;1.10;;;0.70;;
74102;SDS011;62853;46.166;3.640;2022-10-22T00:23:15;0.75;;;0.70;;
74102;SDS011;62853;46.166;3.640;2022-10-22T00:25:40;1.52;;;0.45;;
74102;SDS011;62853;46.166;3.640;2022-10-22T00:28:06;0.50;;;0.50;;
74102;SDS011;62853;46.166;3.640;2022-10-22T00:30:31;2.38;;;0.50;;
74102;SDS011;62853;46.166;3.640;2022-10-22T00:32:56;0.30;;;0.30;;
74102;SDS011;62853;46.166;3.640;2022-10-22T00:35:21;0.20;;;0.20;;
74102;SDS011;62853;46.166;3.640;2022-10-22T00:37:48;1.95;;;0.35;;
74102;SDS011;62853;46.166;3.640;2022-10-22T00:40:13;0.77;;;0.40;;
74102;SDS011;62853;46.166;3.640;2022-10-22T00:42:38;0.20;;;0.20;;
74102;SDS011;62853;46.166;3.640;2022-10-22T00:47:36;0.30;;;0.30;;
74102;SDS011;62853;46.166;3.640;2022-10-22T00:50:07;0.40;;;0.40;;
74102;SDS011;62853;46.166;3.640;2022-10-22T00:52:33;0.80;;;0.80;;
74102;SDS011;62853;46.166;3.640;2022-10-22T00:54:59;0.85;;;0.80;;
74102;SDS011;62853;46.166;3.640;2022-10-22T00:57:24;0.80;;;0.60;;
74102;SDS011;62853;46.166;3.640;2022-10-22T00:59:50;1.15;;;0.60;;
74102;SDS011;62853;46.166;3.640;2022-10-22T01:02:15;1.98;;;0.40;;
74102;SDS011;62853;46.166;3.640;2022-10-22T01:04:42;0.45;;;0.45;;
74102;SDS011;62853;46.166;3.640;2022-10-22T01:07:10;0.45;;;0.38;;
74102;SDS011;62853;46.166;3.640;2022-10-22T01:12:14;0.40;;;0.40;;
74102;SDS011;62853;46.166;3.640;2022-10-22T01:29:29;0.35;;;0.35;;
74102;SDS011;62853;46.166;3.640;2022-10-22T01:31:57;1.05;;;0.20;;
74102;SDS011;62853;46.166;3.640;2022-10-22T01:34:24;0.40;;;0.30;;
74102;SDS011;62853;46.166;3.640;2022-10-22T01:36:49;0.68;;;0.60;;
74102;SDS011;62853;46.166;3.640;2022-10-22T01:39:15;2.42;;;1.00;;
74102;SDS011;62853;46.166;3.640;2022-10-22T01:41:44;0.98;;;0.73;;
74102;SDS011;62853;46.166;3.640;2022-10-22T01:44:31;0.60;;;0.60;;
74102;SDS011;62853;46.166;3.640;2022-10-22T01:54:30;0.40;;;0.40;;
74102;SDS011;62853;46.166;3.640;2022-10-22T01:59:57;0.47;;;0.43;;
74102;SDS011;62853;46.166;3.640;2022-10-22T02:07:27;2.10;;;0.50;;
74102;SDS011;62853;46.166;3.640;2022-10-22T02:09:54;0.70;;;0.70;;
74102;SDS011;62853;46.166;3.640;2022-10-22T02:12:20;0.60;;;0.60;;
74102;SDS011;62853;46.166;3.640;2022-10-22T02:14:46;0.50;;;0.50;;
74102;SDS011;62853;46.166;3.640;2022-10-22T02:17:13;0.90;;;0.50;;
74102;SDS011;62853;46.166;3.640;2022-10-22T02:19:52;0.80;;;0.70;;
74102;SDS011;62853;46.166;3.640;2022-10-22T02:22:18;0.70;;;0.40;;
74102;SDS011;62853;46.166;3.640;2022-10-22T02:24:44;0.40;;;0.40;;
74102;SDS011;62853;46.166;3.640;2022-10-22T02:27:31;0.57;;;0.50;;
74102;SDS011;62853;46.166;3.640;2022-10-22T02:30:08;0.40;;;0.40;;
74102;SDS011;62853;46.166;3.640;2022-10-22T02:32:42;0.73;;;0.70;;
74102;SDS011;62853;46.166;3.640;2022-10-22T02:35:09;0.60;;;0.60;;
74102;SDS011;62853;46.166;3.640;2022-10-22T02:37:35;0.55;;;0.50;;
74102;SDS011;62853;46.166;3.640;2022-10-22T02:40:01;1.00;;;0.90;;
74102;SDS011;62853;46.166;3.640;2022-10-22T02:42:26;0.70;;;0.70;;
74102;SDS011;62853;46.166;3.640;2022-10-22T02:44:52;0.60;;;0.60;;
74102;SDS011;62853;46.166;3.640;2022-10-22T02:47:17;0.30;;;0.30;;
74102;SDS011;62853;46.166;3.640;2022-10-22T02:49:42;1.60;;;0.82;;
74102;SDS011;62853;46.166;3.640;2022-10-22T02:52:08;1.67;;;1.58;;
74102;SDS011;62853;46.166;3.640;2022-10-22T02:54:33;1.30;;;1.20;;
74102;SDS011;62853;46.166;3.640;2022-10-22T02:56:58;1.00;;;1.00;;
74102;SDS011;62853;46.166;3.640;2022-10-22T02:59:23;1.10;;;0.90;;
74102;SDS011;62853;46.166;3.640;2022-10-22T03:01:49;0.88;;;0.80;;
74102;SDS011;62853;46.166;3.640;2022-10-22T03:04:14;1.05;;;0.95;;
74102;SDS011;62853;46.166;3.640;2022-10-22T03:06:39;0.70;;;0.70;;
74102;SDS011;62853;46.166;3.640;2022-10-22T03:09:07;0.95;;;0.80;;
74102;SDS011;62853;46.166;3.640;2022-10-22T03:11:33;0.60;;;0.60;;
74102;SDS011;62853;46.166;3.640;2022-10-22T03:13:58;1.20;;;0.80;;
74102;SDS011;62853;46.166;3.640;2022-10-22T03:16:23;0.67;;;0.67;;
74102;SDS011;62853;46.166;3.640;2022-10-22T03:18:48;0.80;;;0.70;;
74102;SDS011;62853;46.166;3.640;2022-10-22T03:23:44;0.90;;;0.90;;
74102;SDS011;62853;46.166;3.640;2022-10-22T03:26:10;1.08;;;0.70;;
74102;SDS011;62853;46.166;3.640;2022-10-22T03:28:36;0.68;;;0.60;;
74102;SDS011;62853;46.166;3.640;2022-10-22T03:31:02;0.60;;;0.60;;
74102;SDS011;62853;46.166;3.640;2022-10-22T03:33:27;0.75;;;0.75;;
74102;SDS011;62853;46.166;3.640;2022-10-22T03:35:52;1.25;;;0.95;;
74102;SDS011;62853;46.166;3.640;2022-10-22T03:38:18;1.52;;;1.20;;
74102;SDS011;62853;46.166;3.640;2022-10-22T03:40:43;1.20;;;1.10;;
74102;SDS011;62853;46.166;3.640;2022-10-22T03:43:09;1.38;;;1.13;;
74102;SDS011;62853;46.166;3.640;2022-10-22T03:45:35;0.73;;;0.73;;
74102;SDS011;62853;46.166;3.640;2022-10-22T03:48:00;0.70;;;0.70;;
74102;SDS011;62853;46.166;3.640;2022-10-22T03:50:25;1.80;;;0.80;;
74102;SDS011;62853;46.166;3.640;2022-10-22T03:52:50;0.60;;;0.60;;
74102;SDS011;62853;46.166;3.640;2022-10-22T03:55:17;0.60;;;0.60;;
74102;SDS011;62853;46.166;3.640;2022-10-22T03:57:42;0.70;;;0.63;;
74102;SDS011;62853;46.166;3.640;2022-10-22T04:00:08;1.05;;;0.90;;
74102;SDS011;62853;46.166;3.640;2022-10-22T04:02:33;0.80;;;0.80;;
74102;SDS011;62853;46.166;3.640;2022-10-22T04:04:58;0.75;;;0.75;;
74102;SDS011;62853;46.166;3.640;2022-10-22T04:07:23;1.10;;;1.00;;
74102;SDS011;62853;46.166;3.640;2022-10-22T04:09:49;0.70;;;0.70;;
74102;SDS011;62853;46.166;3.640;2022-10-22T04:12:14;0.88;;;0.88;;
74102;SDS011;62853;46.166;3.640;2022-10-22T04:14:39;1.27;;;1.00;;
74102;SDS011;62853;46.166;3.640;2022-10-22T04:17:04;0.95;;;0.90;;
74102;SDS011;62853;46.166;3.640;2022-10-22T04:19:29;0.90;;;0.88;;
74102;SDS011;62853;46.166;3.640;2022-10-22T04:21:58;1.58;;;1.00;;
74102;SDS011;62853;46.166;3.640;2022-10-22T04:24:23;1.02;;;0.93;;
74102;SDS011;62853;46.166;3.640;2022-10-22T04:26:48;2.00;;;1.42;;
74102;SDS011;62853;46.166;3.640;2022-10-22T04:29:14;1.73;;;1.02;;
74102;SDS011;62853;46.166;3.640;2022-10-22T04:31:39;1.33;;;1.10;;
74102;SDS011;62853;46.166;3.640;2022-10-22T04:34:04;0.90;;;0.90;;
74102;SDS011;62853;46.166;3.640;2022-10-22T04:36:29;0.70;;;0.70;;
74102;SDS011;62853;46.166;3.640;2022-10-22T04:38:55;0.70;;;0.70;;
74102;SDS011;62853;46.166;3.640;2022-10-22T04:41:25;0.80;;;0.80;;
74102;SDS011;62853;46.166;3.640;2022-10-22T04:43:51;0.70;;;0.70;;
74102;SDS011;62853;46.166;3.640;2022-10-22T04:46:17;0.80;;;0.80;;
74102;SDS011;62853;46.166;3.640;2022-10-22T04:48:43;0.65;;;0.65;;
74102;SDS011;62853;46.166;3.640;2022-10-22T04:51:09;1.50;;;1.13;;
74102;SDS011;62853;46.166;3.640;2022-10-22T04:53:35;1.25;;;1.15;;
74102;SDS011;62853;46.166;3.640;2022-10-22T04:58:31;1.48;;;1.10;;
74102;SDS011;62853;46.166;3.640;2022-10-22T05:00:57;1.83;;;1.40;;
74102;SDS011;62853;46.166;3.640;2022-10-22T05:03:23;1.10;;;1.02;;
74102;SDS011;62853;46.166;3.640;2022-10-22T05:05:48;1.30;;;1.10;;
74102;SDS011;62853;46.166;3.640;2022-10-22T05:08:14;1.40;;;1.30;;
74102;SDS011;62853;46.166;3.640;2022-10-22T05:10:39;2.63;;;1.20;;
74102;SDS011;62853;46.166;3.640;2022-10-22T05:13:04;1.40;;;1.30;;
74102;SDS011;62853;46.166;3.640;2022-10-22T05:15:29;1.60;;;1.50;;
74102;SDS011;62853;46.166;3.640;2022-10-22T05:17:54;2.40;;;1.40;;
74102;SDS011;62853;46.166;3.640;2022-10-22T05:20:20;1.58;;;1.30;;
74102;SDS011;62853;46.166;3.640;2022-10-22T05:22:45;1.17;;;1.08;;
74102;SDS011;62853;46.166;3.640;2022-10-22T05:25:10;3.07;;;1.10;;
74102;SDS011;62853;46.166;3.640;2022-10-22T05:27:36;1.92;;;1.30;;
74102;SDS011;62853;46.166;3.640;2022-10-22T05:30:01;2.38;;;1.80;;
74102;SDS011;62853;46.166;3.640;2022-10-22T05:32:26;1.95;;;1.60;;
74102;SDS011;62853;46.166;3.640;2022-10-22T05:34:52;1.83;;;1.50;;
74102;SDS011;62853;46.166;3.640;2022-10-22T05:37:17;1.63;;;1.33;;
74102;SDS011;62853;46.166;3.640;2022-10-22T05:39:42;1.90;;;1.40;;
74102;SDS011;62853;46.166;3.640;2022-10-22T05:42:07;1.00;;;0.90;;
74102;SDS011;62853;46.166;3.640;2022-10-22T05:44:32;1.20;;;1.00;;
74102;SDS011;62853;46.166;3.640;2022-10-22T05:46:58;1.35;;;1.10;;
74102;SDS011;62853;46.166;3.640;2022-10-22T05:49:23;1.53;;;1.17;;
74102;SDS011;62853;46.166;3.640;2022-10-22T05:51:48;2.85;;;1.67;;
74102;SDS011;62853;46.166;3.640;2022-10-22T05:54:17;1.88;;;1.25;;
74102;SDS011;62853;46.166;3.640;2022-10-22T05:56:42;2.30;;;1.40;;
74102;SDS011;62853;46.166;3.640;2022-10-22T05:59:09;1.50;;;1.40;;
74102;SDS011;62853;46.166;3.640;2022-10-22T06:01:34;1.83;;;1.70;;
74102;SDS011;62853;46.166;3.640;2022-10-22T06:04:00;1.67;;;1.57;;
74102;SDS011;62853;46.166;3.640;2022-10-22T06:06:36;1.40;;;1.30;;
74102;SDS011;62853;46.166;3.640;2022-10-22T06:11:36;2.15;;;1.40;;
74102;SDS011;62853;46.166;3.640;2022-10-22T06:14:02;0.90;;;0.90;;
74102;SDS011;62853;46.166;3.640;2022-10-22T06:16:28;1.55;;;1.45;;
74102;SDS011;62853;46.166;3.640;2022-10-22T06:18:53;2.20;;;1.25;;
74102;SDS011;62853;46.166;3.640;2022-10-22T06:21:18;1.20;;;1.10;;
74102;SDS011;62853;46.166;3.640;2022-10-22T06:23:44;2.20;;;1.38;;
74102;SDS011;62853;46.166;3.640;2022-10-22T06:26:09;1.02;;;0.88;;
74102;SDS011;62853;46.166;3.640;2022-10-22T06:28:35;0.80;;;0.80;;
74102;SDS011;62853;46.166;3.640;2022-10-22T06:31:00;2.45;;;0.75;;
74102;SDS011;62853;46.166;3.640;2022-10-22T06:33:26;0.93;;;0.80;;
74102;SDS011;62853;46.166;3.640;2022-10-22T06:35:52;0.80;;;0.75;;
74102;SDS011;62853;46.166;3.640;2022-10-22T06:38:17;0.90;;;0.90;;
74102;SDS011;62853;46.166;3.640;2022-10-22T06:40:42;2.10;;;1.80;;
74102;SDS011;62853;46.166;3.640;2022-10-22T06:43:09;2.00;;;1.33;;
74102;SDS011;62853;46.166;3.640;2022-10-22T06:45:35;2.40;;;1.30;;
74102;SDS011;62853;46.166;3.640;2022-10-22T06:48:00;1.25;;;1.13;;
74102;SDS011;62853;46.166;3.640;2022-10-22T06:50:25;1.55;;;1.33;;
74102;SDS011;62853;46.166;3.640;2022-10-22T06:52:50;1.50;;;1.40;;
74102;SDS011;62853;46.166;3.640;2022-10-22T06:55:15;1.20;;;1.10;;
74102;SDS011;62853;46.166;3.640;2022-10-22T06:57:41;1.33;;;1.23;;
74102;SDS011;62853;46.166;3.640;2022-10-22T07:00:06;2.63;;;1.15;;
74102;SDS011;62853;46.166;3.640;2022-10-22T07:02:31;1.38;;;1.05;;
74102;SDS011;62853;46.166;3.640;2022-10-22T07:04:57;1.83;;;1.27;;
74102;SDS011;62853;46.166;3.640;2022-10-22T07:07:22;0.88;;;0.85;;
74102;SDS011;62853;46.166;3.640;2022-10-22T07:09:47;3.08;;;1.60;;
74102;SDS011;62853;46.166;3.640;2022-10-22T07:12:13;1.15;;;1.00;;
74102;SDS011;62853;46.166;3.640;2022-10-22T07:14:38;1.10;;;1.00;;
74102;SDS011;62853;46.166;3.640;2022-10-22T07:17:04;0.80;;;0.80;;
74102;SDS011;62853;46.166;3.640;2022-10-22T07:19:29;0.90;;;0.90;;
74102;SDS011;62853;46.166;3.640;2022-10-22T07:21:55;2.50;;;1.45;;
74102;SDS011;62853;46.166;3.640;2022-10-22T07:24:20;2.13;;;1.20;;
74102;SDS011;62853;46.166;3.640;2022-10-22T07:26:45;1.30;;;1.20;;
74102;SDS011;62853;46.166;3.640;2022-10-22T07:29:11;1.08;;;0.95;;
74102;SDS011;62853;46.166;3.640;2022-10-22T07:31:36;3.83;;;1.90;;
74102;SDS011;62853;46.166;3.640;2022-10-22T07:34:01;2.78;;;1.70;;
74102;SDS011;62853;46.166;3.640;2022-10-22T07:36:26;1.23;;;1.13;;
74102;SDS011;62853;46.166;3.640;2022-10-22T07:38:53;2.42;;;1.25;;
74102;SDS011;62853;46.166;3.640;2022-10-22T07:41:18;1.30;;;0.93;;
74102;SDS011;62853;46.166;3.640;2022-10-22T07:43:44;1.05;;;0.90;;
74102;SDS011;62853;46.166;3.640;2022-10-22T07:46:09;1.75;;;1.20;;
74102;SDS011;62853;46.166;3.640;2022-10-22T07:48:36;2.38;;;1.60;;
74102;SDS011;62853;46.166;3.640;2022-10-22T07:51:01;2.72;;;1.45;;
74102;SDS011;62853;46.166;3.640;2022-10-22T07:53:26;3.45;;;1.60;;
74102;SDS011;62853;46.166;3.640;2022-10-22T07:55:52;1.73;;;1.00;;
74102;SDS011;62853;46.166;3.640;2022-10-22T07:58:17;1.45;;;1.17;;
74102;SDS011;62853;46.166;3.640;2022-10-22T08:00:43;0.93;;;0.93;;
74102;SDS011;62853;46.166;3.640;2022-10-22T08:03:12;1.95;;;1.20;;
74102;SDS011;62853;46.166;3.640;2022-10-22T08:05:38;1.20;;;1.10;;
74102;SDS011;62853;46.166;3.640;2022-10-22T08:08:03;1.95;;;1.10;;
74102;SDS011;62853;46.166;3.640;2022-10-22T08:10:29;6.72;;;2.28;;
74102;SDS011;62853;46.166;3.640;2022-10-22T08:12:54;8.52;;;2.92;;
74102;SDS011;62853;46.166;3.640;2022-10-22T08:15:19;3.25;;;2.00;;
74102;SDS011;62853;46.166;3.640;2022-10-22T08:17:46;3.35;;;1.92;;
74102;SDS011;62853;46.166;3.640;2022-10-22T08:20:11;2.65;;;1.40;;
74102;SDS011;62853;46.166;3.640;2022-10-22T08:22:36;2.53;;;1.70;;
74102;SDS011;62853;46.166;3.640;2022-10-22T08:25:02;2.22;;;1.65;;
74102;SDS011;62853;46.166;3.640;2022-10-22T08:27:27;1.40;;;1.30;;
74102;SDS011;62853;46.166;3.640;2022-10-22T08:29:52;12.00;;;2.55;;
74102;SDS011;62853;46.166;3.640;2022-10-22T08:32:17;3.17;;;1.73;;
74102;SDS011;62853;46.166;3.640;2022-10-22T08:34:42;4.22;;;2.13;;
74102;SDS011;62853;46.166;3.640;2022-10-22T08:37:08;5.73;;;2.60;;
74102;SDS011;62853;46.166;3.640;2022-10-22T08:39:34;4.15;;;2.30;;
74102;SDS011;62853;46.166;3.640;2022-10-22T08:50:14;4.65;;;3.22;;
74102;SDS011;62853;46.166;3.640;2022-10-22T08:52:41;6.05;;;2.90;;
74102;SDS011;62853;46.166;3.640;2022-10-22T08:55:11;6.30;;;2.90;;
74102;SDS011;62853;46.166;3.640;2022-10-22T08:57:45;3.05;;;2.25;;
74102;SDS011;62853;46.166;3.640;2022-10-22T09:00:17;5.55;;;3.40;;
74102;SDS011;62853;46.166;3.640;2022-10-22T09:08:00;5.25;;;2.72;;
74102;SDS011;62853;46.166;3.640;2022-10-22T09:10:28;6.97;;;3.03;;
74102;SDS011;62853;46.166;3.640;2022-10-22T09:12:55;6.55;;;3.00;;
74102;SDS011;62853;46.166;3.640;2022-10-22T09:15:20;9.85;;;3.40;;
74102;SDS011;62853;46.166;3.640;2022-10-22T09:17:52;9.75;;;3.45;;
74102;SDS011;62853;46.166;3.640;2022-10-22T09:25:23;7.60;;;2.65;;
74102;SDS011;62853;46.166;3.640;2022-10-22T09:27:49;8.32;;;2.40;;
74102;SDS011;62853;46.166;3.640;2022-10-22T09:30:17;2.90;;;1.77;;
74102;SDS011;62853;46.166;3.640;2022-10-22T09:32:43;6.55;;;2.33;;
74102;SDS011;62853;46.166;3.640;2022-10-22T09:35:11;5.30;;;2.25;;
74102;SDS011;62853;46.166;3.640;2022-10-22T09:37:42;4.10;;;1.80;;
74102;SDS011;62853;46.166;3.640;2022-10-22T09:40:12;5.30;;;2.30;;
74102;SDS011;62853;46.166;3.640;2022-10-22T09:42:38;2.90;;;2.00;;
74102;SDS011;62853;46.166;3.640;2022-10-22T09:45:05;3.88;;;2.10;;
74102;SDS011;62853;46.166;3.640;2022-10-22T09:47:34;4.07;;;2.00;;
74102;SDS011;62853;46.166;3.640;2022-10-22T09:50:06;3.50;;;2.08;;
74102;SDS011;62853;46.166;3.640;2022-10-22T09:52:34;2.92;;;2.03;;
74102;SDS011;62853;46.166;3.640;2022-10-22T09:55:10;3.25;;;2.03;;
74102;SDS011;62853;46.166;3.640;2022-10-22T09:57:36;5.47;;;2.10;;
74102;SDS011;62853;46.166;3.640;2022-10-22T10:00:06;1.85;;;1.35;;
74102;SDS011;62853;46.166;3.640;2022-10-22T10:02:31;6.25;;;2.70;;
74102;SDS011;62853;46.166;3.640;2022-10-22T10:05:04;2.97;;;1.90;;
74102;SDS011;62853;46.166;3.640;2022-10-22T10:07:30;4.88;;;1.75;;
74102;SDS011;62853;46.166;3.640;2022-10-22T10:09:56;2.88;;;1.80;;
74102;SDS011;62853;46.166;3.640;2022-10-22T10:12:42;3.78;;;1.90;;
74102;SDS011;62853;46.166;3.640;2022-10-22T10:22:54;3.28;;;1.65;;
74102;SDS011;62853;46.166;3.640;2022-10-22T10:27:55;4.30;;;1.90;;
74102;SDS011;62853;46.166;3.640;2022-10-22T10:30:23;2.00;;;1.80;;
74102;SDS011;62853;46.166;3.640;2022-10-22T10:35:27;1.92;;;1.42;;
74102;SDS011;62853;46.166;3.640;2022-10-22T10:41:12;3.20;;;1.58;;
74102;SDS011;62853;46.166;3.640;2022-10-22T10:43:21;2.63;;;1.58;;
74102;SDS011;62853;46.166;3.640;2022-10-22T10:53:35;5.25;;;2.40;;
74102;SDS011;62853;46.166;3.640;2022-10-22T11:00:56;4.72;;;1.92;;
74102;SDS011;62853;46.166;3.640;2022-10-22T11:06:02;4.32;;;2.58;;
74102;SDS011;62853;46.166;3.640;2022-10-22T11:08:38;2.75;;;1.60;;
74102;SDS011;62853;46.166;3.640;2022-10-22T11:11:19;2.47;;;1.48;;
74102;SDS011;62853;46.166;3.640;2022-10-22T11:13:55;3.67;;;1.80;;
74102;SDS011;62853;46.166;3.640;2022-10-22T11:16:29;4.93;;;1.98;;
74102;SDS011;62853;46.166;3.640;2022-10-22T11:21:40;1.77;;;1.50;;
74102;SDS011;62853;46.166;3.640;2022-10-22T11:29:00;4.82;;;1.83;;
74102;SDS011;62853;46.166;3.640;2022-10-22T11:31:28;3.55;;;1.80;;
74102;SDS011;62853;46.166;3.640;2022-10-22T11:34:03;1.77;;;1.17;;
74102;SDS011;62853;46.166;3.640;2022-10-22T11:36:29;1.50;;;1.17;;
74102;SDS011;62853;46.166;3.640;2022-10-22T11:38:56;1.23;;;1.00;;
74102;SDS011;62853;46.166;3.640;2022-10-22T11:41:26;1.83;;;1.00;;
74102;SDS011;62853;46.166;3.640;2022-10-22T11:44:08;3.75;;;1.60;;
74102;SDS011;62853;46.166;3.640;2022-10-22T11:49:21;1.60;;;1.50;;
74102;SDS011;62853;46.166;3.640;2022-10-22T11:51:47;1.60;;;1.27;;
74102;SDS011;62853;46.166;3.640;2022-10-22T11:54:36;3.20;;;1.30;;
74102;SDS011;62853;46.166;3.640;2022-10-22T12:02:21;3.13;;;2.67;;
74102;SDS011;62853;46.166;3.640;2022-10-22T12:04:47;2.50;;;2.30;;
74102;SDS011;62853;46.166;3.640;2022-10-22T12:07:32;3.43;;;2.10;;
74102;SDS011;62853;46.166;3.640;2022-10-22T12:09:58;2.47;;;1.70;;
74102;SDS011;62853;46.166;3.640;2022-10-22T12:12:23;5.82;;;2.13;;
74102;SDS011;62853;46.166;3.640;2022-10-22T12:14:53;2.80;;;1.80;;
74102;SDS011;62853;46.166;3.640;2022-10-22T12:17:19;2.78;;;1.90;;
74102;SDS011;62853;46.166;3.640;2022-10-22T12:19:46;5.05;;;2.10;;
74102;SDS011;62853;46.166;3.640;2022-10-22T12:24:45;2.38;;;1.70;;
74102;SDS011;62853;46.166;3.640;2022-10-22T12:27:48;2.75;;;1.75;;
74102;SDS011;62853;46.166;3.640;2022-10-22T12:30:15;2.22;;;1.75;;
74102;SDS011;62853;46.166;3.640;2022-10-22T12:32:41;3.08;;;1.58;;
74102;SDS011;62853;46.166;3.640;2022-10-22T12:35:07;1.70;;;1.60;;
74102;SDS011;62853;46.166;3.640;2022-10-22T12:37:35;2.72;;;1.60;;
74102;SDS011;62853;46.166;3.640;2022-10-22T12:40:02;3.08;;;1.77;;
74102;SDS011;62853;46.166;3.640;2022-10-22T12:42:45;2.15;;;1.38;;
74102;SDS011;62853;46.166;3.640;2022-10-22T12:45:11;2.03;;;1.75;;
74102;SDS011;62853;46.166;3.640;2022-10-22T12:47:36;2.53;;;1.70;;
74102;SDS011;62853;46.166;3.640;2022-10-22T12:50:01;2.22;;;1.63;;
74102;SDS011;62853;46.166;3.640;2022-10-22T12:52:27;2.78;;;1.58;;
74102;SDS011;62853;46.166;3.640;2022-10-22T12:54:52;2.13;;;1.40;;
74102;SDS011;62853;46.166;3.640;2022-10-22T12:57:19;1.83;;;1.45;;
74102;SDS011;62853;46.166;3.640;2022-10-22T12:59:48;1.70;;;1.35;;
74102;SDS011;62853;46.166;3.640;2022-10-22T13:02:21;4.43;;;2.15;;
74102;SDS011;62853;46.166;3.640;2022-10-22T13:05:12;4.22;;;2.08;;
74102;SDS011;62853;46.166;3.640;2022-10-22T13:08:01;2.80;;;1.80;;
74102;SDS011;62853;46.166;3.640;2022-10-22T13:10:31;2.50;;;1.77;;
74102;SDS011;62853;46.166;3.640;2022-10-22T13:12:56;4.93;;;2.22;;
74102;SDS011;62853;46.166;3.640;2022-10-22T13:20:27;2.45;;;2.00;;
74102;SDS011;62853;46.166;3.640;2022-10-22T13:22:54;2.17;;;1.60;;
74102;SDS011;62853;46.166;3.640;2022-10-22T13:25:24;5.32;;;1.90;;
74102;SDS011;62853;46.166;3.640;2022-10-22T13:27:51;1.35;;;1.23;;
74102;SDS011;62853;46.166;3.640;2022-10-22T13:30:19;1.48;;;1.30;;
74102;SDS011;62853;46.166;3.640;2022-10-22T13:32:48;2.13;;;1.23;;
74102;SDS011;62853;46.166;3.640;2022-10-22T13:35:21;1.77;;;1.50;;
74102;SDS011;62853;46.166;3.640;2022-10-22T13:37:47;1.52;;;1.30;;
74102;SDS011;62853;46.166;3.640;2022-10-22T13:40:12;3.40;;;1.60;;
74102;SDS011;62853;46.166;3.640;2022-10-22T13:42:37;4.72;;;1.80;;
74102;SDS011;62853;46.166;3.640;2022-10-22T13:45:03;1.63;;;1.52;;
74102;SDS011;62853;46.166;3.640;2022-10-22T13:47:29;5.28;;;1.67;;
74102;SDS011;62853;46.166;3.640;2022-10-22T13:49:55;3.30;;;2.00;;
74102;SDS011;62853;46.166;3.640;2022-10-22T13:52:30;5.68;;;1.52;;
74102;SDS011;62853;46.166;3.640;2022-10-22T13:54:57;3.03;;;1.60;;
74102;SDS011;62853;46.166;3.640;2022-10-22T13:57:22;1.67;;;1.30;;
74102;SDS011;62853;46.166;3.640;2022-10-22T13:59:48;4.07;;;1.77;;
74102;SDS011;62853;46.166;3.640;2022-10-22T14:02:13;2.05;;;1.30;;
74102;SDS011;62853;46.166;3.640;2022-10-22T14:04:39;1.20;;;1.10;;
74102;SDS011;62853;46.166;3.640;2022-10-22T14:07:11;3.15;;;1.35;;
74102;SDS011;62853;46.166;3.640;2022-10-22T14:09:37;2.15;;;1.40;;
74102;SDS011;62853;46.166;3.640;2022-10-22T14:12:07;4.60;;;1.77;;
74102;SDS011;62853;46.166;3.640;2022-10-22T14:14:33;1.60;;;1.50;;
74102;SDS011;62853;46.166;3.640;2022-10-22T14:16:58;2.47;;;1.40;;
74102;SDS011;62853;46.166;3.640;2022-10-22T14:19:23;1.90;;;0.98;;
74102;SDS011;62853;46.166;3.640;2022-10-22T14:21:49;2.22;;;1.02;;
74102;SDS011;62853;46.166;3.640;2022-10-22T14:24:14;2.33;;;1.60;;
74102;SDS011;62853;46.166;3.640;2022-10-22T14:26:39;2.05;;;1.10;;
74102;SDS011;62853;46.166;3.640;2022-10-22T14:29:04;1.10;;;1.00;;
74102;SDS011;62853;46.166;3.640;2022-10-22T14:31:30;1.43;;;1.10;;
74102;SDS011;62853;46.166;3.640;2022-10-22T14:33:55;3.65;;;1.70;;
74102;SDS011;62853;46.166;3.640;2022-10-22T14:36:20;1.67;;;1.30;;
74102;SDS011;62853;46.166;3.640;2022-10-22T14:38:46;5.93;;;1.95;;
74102;SDS011;62853;46.166;3.640;2022-10-22T14:41:16;2.60;;;1.27;;
74102;SDS011;62853;46.166;3.640;2022-10-22T14:43:42;1.40;;;1.30;;
74102;SDS011;62853;46.166;3.640;2022-10-22T14:46:07;2.37;;;1.20;;
74102;SDS011;62853;46.166;3.640;2022-10-22T14:48:33;2.10;;;1.35;;
74102;SDS011;62853;46.166;3.640;2022-10-22T14:50:59;2.90;;;1.20;;
74102;SDS011;62853;46.166;3.640;2022-10-22T14:53:24;2.60;;;1.20;;
74102;SDS011;62853;46.166;3.640;2022-10-22T14:55:49;2.78;;;1.20;;
74102;SDS011;62853;46.166;3.640;2022-10-22T14:58:15;3.55;;;1.73;;
74102;SDS011;62853;46.166;3.640;2022-10-22T15:00:41;2.42;;;1.30;;
74102;SDS011;62853;46.166;3.640;2022-10-22T15:03:06;3.13;;;1.55;;
74102;SDS011;62853;46.166;3.640;2022-10-22T15:05:32;1.98;;;1.20;;
74102;SDS011;62853;46.166;3.640;2022-10-22T15:07:57;1.10;;;0.95;;
74102;SDS011;62853;46.166;3.640;2022-10-22T15:10:23;1.17;;;1.00;;
74102;SDS011;62853;46.166;3.640;2022-10-22T15:12:48;0.73;;;0.73;;
74102;SDS011;62853;46.166;3.640;2022-10-22T15:15:13;1.13;;;0.80;;
74102;SDS011;62853;46.166;3.640;2022-10-22T15:17:39;0.70;;;0.70;;
74102;SDS011;62853;46.166;3.640;2022-10-22T15:20:04;1.00;;;0.50;;
74102;SDS011;62853;46.166;3.640;2022-10-22T15:22:30;1.25;;;0.68;;
74102;SDS011;62853;46.166;3.640;2022-10-22T15:24:56;0.40;;;0.40;;
74102;SDS011;62853;46.166;3.640;2022-10-22T15:27:21;0.52;;;0.40;;
74102;SDS011;62853;46.166;3.640;2022-10-22T15:29:47;0.43;;;0.40;;
74102;SDS011;62853;46.166;3.640;2022-10-22T15:32:12;0.75;;;0.50;;
74102;SDS011;62853;46.166;3.640;2022-10-22T15:34:38;0.60;;;0.50;;
74102;SDS011;62853;46.166;3.640;2022-10-22T15:37:04;0.32;;;0.32;;
74102;SDS011;62853;46.166;3.640;2022-10-22T15:39:30;1.23;;;0.40;;
74102;SDS011;62853;46.166;3.640;2022-10-22T15:41:55;1.80;;;0.60;;
74102;SDS011;62853;46.166;3.640;2022-10-22T15:44:22;0.50;;;0.50;;
74102;SDS011;62853;46.166;3.640;2022-10-22T15:46:47;0.45;;;0.45;;
74102;SDS011;62853;46.166;3.640;2022-10-22T15:49:14;0.95;;;0.30;;
74102;SDS011;62853;46.166;3.640;2022-10-22T15:51:39;1.45;;;0.47;;
74102;SDS011;62853;46.166;3.640;2022-10-22T15:54:05;0.50;;;0.30;;
74102;SDS011;62853;46.166;3.640;2022-10-22T15:56:30;0.45;;;0.40;;
74102;SDS011;62853;46.166;3.640;2022-10-22T15:58:57;0.22;;;0.22;;
74102;SDS011;62853;46.166;3.640;2022-10-22T16:01:23;0.50;;;0.32;;
74102;SDS011;62853;46.166;3.640;2022-10-22T16:03:49;0.50;;;0.20;;
74102;SDS011;62853;46.166;3.640;2022-10-22T16:06:16;0.88;;;0.40;;
74102;SDS011;62853;46.166;3.640;2022-10-22T16:08:41;0.77;;;0.50;;
74102;SDS011;62853;46.166;3.640;2022-10-22T16:11:06;0.40;;;0.35;;
74102;SDS011;62853;46.166;3.640;2022-10-22T16:13:32;0.30;;;0.25;;
74102;SDS011;62853;46.166;3.640;2022-10-22T16:15:57;1.85;;;0.30;;
74102;SDS011;62853;46.166;3.640;2022-10-22T16:18:22;1.15;;;0.50;;
74102;SDS011;62853;46.166;3.640;2022-10-22T16:20:47;1.13;;;0.50;;
74102;SDS011;62853;46.166;3.640;2022-10-22T16:23:13;0.50;;;0.50;;
74102;SDS011;62853;46.166;3.640;2022-10-22T16:25:42;0.50;;;0.50;;
74102;SDS011;62853;46.166;3.640;2022-10-22T16:28:08;0.47;;;0.40;;
74102;SDS011;62853;46.166;3.640;2022-10-22T16:30:34;0.32;;;0.30;;
74102;SDS011;62853;46.166;3.640;2022-10-22T16:33:00;1.42;;;1.10;;
74102;SDS011;62853;46.166;3.640;2022-10-22T16:35:25;1.70;;;1.35;;
74102;SDS011;62853;46.166;3.640;2022-10-22T16:37:50;1.77;;;1.40;;
74102;SDS011;62853;46.166;3.640;2022-10-22T16:40:17;1.58;;;0.93;;
74102;SDS011;62853;46.166;3.640;2022-10-22T16:42:42;0.90;;;0.90;;